createdAt,value
2018-08-11T08:02:56.976Z,4.60
2018-08-11T08:05:25.909Z,4.73
2018-08-11T08:07:54.767Z,4.23
2018-08-11T09:02:39.862Z,7.13
2018-08-11T09:05:08.804Z,9.17
2018-08-11T09:07:37.671Z,7.53
2018-08-11T09:10:06.829Z,9.73
2018-08-11T10:03:13.525Z,8.83
2018-08-11T10:05:42.530Z,6.97
2018-08-11T10:08:11.481Z,30.93
2018-08-11T11:02:39.948Z,6.43
2018-08-11T11:05:09.491Z,4.33
2018-08-11T11:07:40.541Z,3.63
2018-08-11T12:02:47.914Z,10.47
2018-08-11T12:05:16.821Z,6.33
2018-08-11T12:07:45.736Z,4.50
2018-08-11T12:10:15.291Z,5.25
2018-08-11T13:02:37.065Z,10.77
2018-08-11T13:05:06.163Z,8.57
2018-08-11T13:07:35.306Z,63.40
2018-08-11T13:10:05.081Z,101.20
2018-08-11T14:02:37.405Z,7.40
2018-08-11T14:05:06.322Z,3.90
2018-08-11T14:07:35.278Z,2.80
2018-08-11T14:10:05.219Z,5.27
2018-08-11T15:02:54.201Z,4.40
2018-08-11T15:05:23.068Z,2.23
2018-08-11T15:07:51.944Z,2.20
2018-08-11T15:10:20.957Z,2.27
2018-08-11T16:02:37.168Z,2.07
2018-08-11T16:05:06.111Z,2.30
2018-08-11T16:07:35.565Z,2.97
2018-08-11T16:10:05.134Z,3.90
2018-08-11T17:02:40.387Z,4.57
2018-08-11T17:05:09.235Z,6.90
2018-08-11T17:07:38.092Z,3.93
2018-08-11T18:02:47.273Z,14.53
2018-08-11T18:05:17.043Z,13.70
2018-08-11T18:07:46.409Z,16.17
2018-08-11T18:10:15.833Z,12.73
2018-08-11T19:02:39.169Z,16.33
2018-08-11T19:05:09.356Z,16.27
2018-08-11T19:07:38.685Z,15.43
2018-08-11T20:02:55.200Z,33.50
2018-08-11T20:05:26.023Z,39.20
2018-08-11T20:07:55.521Z,42.53
2018-08-11T20:10:25.383Z,35.28
2018-08-11T21:02:40.094Z,55.47
2018-08-11T21:05:11.077Z,65.97
2018-08-11T21:07:41.105Z,42.83
2018-08-11T22:02:39.333Z,48.70
2018-08-11T22:05:08.446Z,57.00
2018-08-11T23:03:16.037Z,41.73
2018-08-11T23:05:44.899Z,23.50
2018-08-11T23:08:18.251Z,37.90
2018-08-11T23:10:47.114Z,45.80
